createdAt,value
2018-08-06T00:00:29.448Z,21.54
2018-08-06T00:02:58.830Z,21.41
2018-08-06T00:05:27.953Z,20.82
2018-08-06T00:07:57.328Z,21.45
2018-08-06T00:10:27.593Z,21.35
2018-08-06T00:12:57.003Z,21.13
2018-08-06T00:15:26.385Z,21.37
2018-08-06T00:17:55.742Z,21.28
2018-08-06T00:20:25.721Z,21.24
2018-08-06T00:22:55.083Z,21.46
2018-08-06T00:25:24.199Z,21.30
2018-08-06T00:27:53.550Z,21.24
2018-08-06T00:30:23.473Z,21.07
2018-08-06T00:32:53.475Z,20.88
2018-08-06T00:35:24.415Z,21.74
2018-08-06T00:37:53.712Z,21.16
2018-08-06T00:40:23.096Z,21.06
2018-08-06T00:42:52.449Z,21.01
2018-08-06T00:45:22.147Z,21.11
2018-08-06T00:47:51.500Z,21.12
2018-08-06T00:50:20.884Z,21.08
2018-08-06T00:52:50.258Z,20.87
2018-08-06T00:55:20.322Z,20.86
2018-08-06T00:57:49.680Z,20.80
2018-08-06T01:00:20.052Z,20.68
2018-08-06T01:02:49.475Z,20.81
2018-08-06T01:05:18.850Z,20.91
2018-08-06T01:07:48.223Z,20.82
2018-08-06T01:10:19.171Z,20.53
2018-08-06T01:12:48.574Z,20.80
2018-08-06T01:15:19.200Z,20.92
2018-08-06T01:17:48.577Z,20.77
2018-08-06T01:20:17.691Z,20.53
2018-08-06T01:22:47.060Z,20.76
2018-08-06T01:25:16.472Z,20.63
2018-08-06T01:27:45.844Z,20.84
2018-08-06T01:30:15.836Z,20.51
2018-08-06T01:32:45.252Z,20.39
2018-08-06T01:35:14.648Z,20.34
2018-08-06T01:37:44.087Z,20.27
2018-08-06T01:40:14.572Z,20.25
2018-08-06T01:42:43.981Z,20.27
2018-08-06T01:45:15.390Z,20.11
2018-08-06T01:47:44.730Z,20.10
2018-08-06T01:50:15.608Z,20.07
2018-08-06T01:52:45.012Z,19.55
2018-08-06T01:55:14.425Z,20.84
2018-08-06T01:57:43.539Z,20.13
2018-08-06T02:00:15.431Z,20.03
2018-08-06T02:02:44.872Z,20.01
2018-08-06T02:05:14.118Z,19.99
2018-08-06T02:07:44.039Z,19.95
2018-08-06T02:10:14.684Z,20.15
2018-08-06T02:12:45.259Z,19.92
2018-08-06T02:15:15.043Z,19.92
2018-08-06T02:17:44.676Z,19.81
2018-08-06T02:20:15.382Z,19.66
2018-08-06T02:22:45.756Z,19.62
2018-08-06T02:25:15.594Z,19.58
2018-08-06T02:27:45.875Z,19.55
2018-08-06T02:30:16.218Z,19.37
2018-08-06T02:32:45.639Z,19.38
2018-08-06T02:35:15.931Z,19.40
2018-08-06T02:37:45.451Z,19.38
2018-08-06T02:40:19.345Z,19.25
2018-08-06T02:42:48.794Z,19.28
2018-08-06T02:45:18.779Z,19.12
2018-08-06T02:47:48.158Z,19.28
2018-08-06T02:50:17.540Z,19.34
2018-08-06T02:52:46.923Z,19.03
2018-08-06T02:55:16.894Z,19.12
2018-08-06T02:57:46.292Z,19.09
2018-08-06T03:00:17.947Z,19.04
2018-08-06T03:02:47.983Z,19.07
2018-08-06T03:05:18.939Z,19.02
2018-08-06T03:07:48.408Z,18.89
2018-08-06T03:10:17.771Z,18.91
2018-08-06T03:12:47.741Z,18.78
2018-08-06T03:15:17.112Z,18.91
2018-08-06T03:17:46.481Z,18.79
2018-08-06T03:20:15.853Z,18.90
2018-08-06T03:22:45.225Z,18.78
2018-08-06T03:25:16.324Z,18.74
2018-08-06T03:27:46.104Z,18.84
2018-08-06T03:30:17.157Z,18.78
2018-08-06T03:32:47.775Z,18.79
2018-08-06T03:35:17.161Z,18.60
2018-08-06T03:37:46.560Z,18.76
2018-08-06T03:40:15.982Z,18.94
2018-08-06T03:42:45.064Z,19.19
2018-08-06T03:45:14.449Z,19.19
2018-08-06T03:47:44.080Z,19.01
2018-08-06T03:50:14.301Z,19.35
2018-08-06T03:52:44.147Z,19.35
2018-08-06T03:55:13.508Z,19.37
2018-08-06T03:57:42.987Z,19.52
2018-08-06T04:00:13.331Z,19.39
2018-08-06T04:02:43.245Z,19.48
2018-08-06T04:05:13.820Z,19.55
2018-08-06T04:07:43.185Z,19.53
2018-08-06T04:10:15.232Z,19.35
2018-08-06T04:12:44.586Z,19.48
2018-08-06T04:15:13.972Z,19.48
2018-08-06T04:17:43.879Z,19.60
2018-08-06T04:20:13.808Z,19.62
2018-08-06T04:22:43.806Z,19.63
2018-08-06T04:25:13.235Z,19.52
2018-08-06T04:27:42.575Z,19.32
2018-08-06T04:30:13.860Z,19.36
2018-08-06T04:32:43.888Z,19.47
2018-08-06T04:35:13.486Z,19.58
2018-08-06T04:37:43.678Z,19.76
2018-08-06T04:40:13.609Z,19.81
2018-08-06T04:42:43.617Z,19.92
2018-08-06T04:45:13.156Z,19.88
2018-08-06T04:47:42.823Z,19.85
2018-08-06T04:50:14.199Z,19.77
2018-08-06T04:52:44.513Z,19.83
2018-08-06T04:55:14.953Z,19.84
2018-08-06T04:57:44.348Z,19.83
2018-08-06T05:00:15.384Z,19.88
2018-08-06T05:02:45.098Z,19.90
2018-08-06T05:05:14.500Z,19.92
2018-08-06T05:07:43.889Z,19.97
2018-08-06T05:10:13.276Z,19.79
2018-08-06T05:12:42.674Z,19.60
2018-08-06T05:15:12.050Z,19.72
2018-08-06T05:17:41.456Z,20.44
2018-08-06T05:20:10.606Z,19.89
2018-08-06T05:22:40.016Z,19.98
2018-08-06T05:25:09.444Z,20.06
2018-08-06T05:27:38.845Z,20.23
2018-08-06T05:30:11.539Z,20.16
2018-08-06T05:32:40.955Z,20.79
2018-08-06T05:35:10.115Z,20.23
2018-08-06T05:37:39.501Z,20.19
2018-08-06T05:40:09.744Z,20.29
2018-08-06T05:42:39.102Z,20.29
2018-08-06T05:45:09.747Z,20.42
2018-08-06T05:47:39.119Z,20.44
2018-08-06T05:50:11.753Z,20.45
2018-08-06T05:52:47.338Z,20.44
2018-08-06T05:55:16.506Z,20.58
2018-08-06T05:57:45.914Z,20.56
2018-08-06T06:00:18.148Z,20.57
2018-08-06T06:02:47.936Z,20.50
2018-08-06T06:05:17.333Z,20.53
2018-08-06T06:07:46.715Z,20.68
2018-08-06T06:10:16.088Z,19.93
2018-08-06T06:12:45.496Z,20.65
2018-08-06T06:15:16.333Z,20.66
2018-08-06T06:17:45.724Z,20.95
2018-08-06T06:20:15.103Z,20.97
2018-08-06T06:22:44.582Z,21.09
2018-08-06T06:25:14.517Z,21.25
2018-08-06T06:27:44.420Z,21.23
2018-08-06T06:30:16.377Z,21.38
2018-08-06T06:32:45.841Z,21.42
2018-08-06T06:35:15.213Z,21.39
2018-08-06T06:37:44.803Z,21.55
2018-08-06T06:40:14.525Z,21.67
2018-08-06T06:42:43.913Z,21.81
2018-08-06T06:45:13.288Z,21.82
2018-08-06T06:47:42.648Z,21.84
2018-08-06T06:50:12.037Z,21.90
2018-08-06T06:52:41.372Z,21.88
2018-08-06T06:55:12.374Z,21.97
2018-08-06T06:57:42.069Z,22.07
2018-08-06T07:00:11.991Z,22.19
2018-08-06T07:02:42.198Z,22.22
2018-08-06T07:05:11.573Z,22.32
2018-08-06T07:07:40.907Z,22.46
2018-08-06T07:10:11.801Z,22.50
2018-08-06T07:12:41.016Z,22.50
2018-08-06T07:15:14.045Z,22.73
2018-08-06T07:17:45.662Z,22.75
2018-08-06T07:20:16.601Z,22.80
2018-08-06T07:22:45.892Z,22.93
2018-08-06T07:25:15.248Z,22.97
2018-08-06T07:27:44.620Z,23.01
2018-08-06T07:30:15.448Z,23.05
2018-08-06T07:32:45.352Z,23.13
2018-08-06T07:35:15.173Z,23.27
2018-08-06T07:37:44.561Z,23.36
2018-08-06T07:40:15.120Z,23.58
2018-08-06T07:42:44.450Z,23.69
2018-08-06T07:45:16.898Z,23.82
2018-08-06T07:47:46.915Z,23.97
2018-08-06T07:50:17.891Z,23.99
2018-08-06T07:52:47.399Z,23.97
2018-08-06T07:55:16.925Z,25.40
2018-08-06T07:57:46.037Z,24.26
2018-08-06T08:00:17.778Z,24.19
2018-08-06T08:02:46.909Z,24.28
2018-08-06T08:05:17.415Z,24.38
2018-08-06T08:07:47.659Z,24.53
2018-08-06T08:10:22.777Z,24.61
2018-08-06T08:12:52.199Z,24.66
2018-08-06T08:15:24.897Z,24.62
2018-08-06T08:17:54.727Z,24.65
2018-08-06T08:20:24.146Z,24.06
2018-08-06T08:22:53.430Z,24.84
2018-08-06T08:25:23.491Z,24.73
2018-08-06T08:27:52.880Z,24.85
2018-08-06T08:30:22.264Z,24.98
2018-08-06T08:32:51.386Z,25.15
2018-08-06T08:35:20.762Z,25.17
2018-08-06T08:37:49.893Z,25.24
2018-08-06T08:40:20.025Z,25.21
2018-08-06T08:42:49.410Z,25.38
2018-08-06T08:45:19.228Z,25.40
2018-08-06T08:47:48.615Z,25.47
2018-08-06T08:50:19.781Z,25.60
2018-08-06T08:52:49.289Z,25.56
2018-08-06T08:55:19.900Z,25.70
2018-08-06T08:57:49.293Z,25.62
2018-08-06T09:00:21.997Z,25.74
2018-08-06T09:02:52.318Z,25.93
2018-08-06T09:05:22.030Z,26.01
2018-08-06T09:07:52.897Z,26.14
2018-08-06T09:10:22.319Z,26.20
2018-08-06T09:12:51.443Z,26.08
2018-08-06T09:15:24.163Z,26.34
2018-08-06T09:17:53.576Z,26.42
2018-08-06T09:20:23.832Z,26.41
2018-08-06T09:22:53.256Z,26.37
2018-08-06T09:25:22.642Z,26.47
2018-08-06T09:27:52.472Z,26.42
2018-08-06T09:30:23.780Z,26.65
2018-08-06T09:32:54.173Z,26.33
2018-08-06T09:35:23.571Z,26.72
2018-08-06T09:37:52.953Z,26.81
2018-08-06T09:40:23.268Z,26.79
2018-08-06T09:42:53.137Z,26.85
2018-08-06T09:45:23.203Z,26.88
2018-08-06T09:47:53.691Z,26.96
2018-08-06T09:50:23.344Z,26.88
2018-08-06T09:52:53.566Z,26.90
2018-08-06T09:55:26.833Z,27.05
2018-08-06T09:57:56.240Z,27.10
2018-08-06T10:00:30.950Z,27.24
2018-08-06T10:03:01.641Z,27.22
2018-08-06T10:05:31.097Z,27.24
2018-08-06T10:08:00.236Z,27.29
2018-08-06T10:10:29.616Z,27.31
2018-08-06T10:12:59.007Z,27.27
2018-08-06T10:15:28.397Z,27.48
2018-08-06T10:17:57.790Z,27.35
2018-08-06T10:20:27.638Z,28.03
2018-08-06T10:22:57.029Z,27.57
2018-08-06T10:25:26.425Z,27.67
2018-08-06T10:27:55.794Z,27.65
2018-08-06T10:30:25.187Z,27.75
2018-08-06T10:32:54.492Z,27.97
2018-08-06T10:35:23.850Z,27.70
2018-08-06T10:37:53.216Z,28.09
2018-08-06T10:40:23.240Z,28.13
2018-08-06T10:42:52.589Z,28.21
2018-08-06T10:45:23.107Z,28.11
2018-08-06T10:47:52.909Z,28.25
2018-08-06T10:50:22.267Z,28.12
2018-08-06T10:52:51.728Z,28.33
2018-08-06T10:55:21.086Z,28.39
2018-08-06T10:57:50.436Z,28.38
2018-08-06T11:00:22.060Z,28.43
2018-08-06T11:02:51.678Z,28.67
2018-08-06T11:05:21.345Z,28.92
2018-08-06T11:07:50.696Z,28.77
2018-08-06T11:10:21.444Z,28.77
2018-08-06T11:12:50.786Z,29.27
2018-08-06T11:15:22.368Z,28.68
2018-08-06T11:17:51.724Z,28.48
2018-08-06T11:20:21.680Z,28.65
2018-08-06T11:22:57.741Z,28.66
2018-08-06T11:25:27.097Z,29.04
2018-08-06T11:27:56.495Z,29.13
2018-08-06T11:30:26.431Z,29.46
2018-08-06T11:32:55.555Z,30.14
2018-08-06T11:35:24.953Z,30.48
2018-08-06T11:37:54.329Z,30.45
2018-08-06T11:40:23.455Z,30.71
2018-08-06T11:42:52.838Z,30.12
2018-08-06T11:45:22.976Z,30.48
2018-08-06T11:47:52.352Z,31.03
2018-08-06T11:50:21.485Z,30.82
2018-08-06T11:52:50.864Z,31.55
2018-08-06T11:55:20.243Z,32.07
2018-08-06T11:57:49.360Z,31.88
2018-08-06T12:00:20.732Z,31.45
2018-08-06T12:02:50.122Z,31.24
2018-08-06T12:05:19.511Z,31.12
2018-08-06T12:07:48.881Z,30.10
2018-08-06T12:10:19.257Z,29.93
2018-08-06T12:12:49.263Z,30.48
2018-08-06T12:15:18.712Z,30.37
2018-08-06T12:17:48.043Z,30.44
2018-08-06T12:20:18.529Z,30.39
2018-08-06T12:22:49.037Z,30.24
2018-08-06T12:25:18.848Z,30.48
2018-08-06T12:27:48.963Z,30.68
2018-08-06T12:30:20.119Z,31.09
2018-08-06T12:32:50.231Z,31.62
2018-08-06T12:35:19.622Z,32.04
2018-08-06T12:37:49.219Z,32.31
2018-08-06T12:40:21.740Z,31.90
2018-08-06T12:42:51.172Z,31.47
2018-08-06T12:45:20.290Z,33.04
2018-08-06T12:47:49.653Z,33.26
2018-08-06T12:50:19.037Z,33.05
2018-08-06T12:52:48.378Z,33.26
2018-08-06T12:55:18.346Z,33.52
2018-08-06T12:57:47.706Z,33.16
2018-08-06T13:00:23.578Z,32.64
2018-08-06T13:02:53.400Z,32.19
2018-08-06T13:05:23.504Z,33.11
2018-08-06T13:07:52.997Z,34.27
2018-08-06T13:10:22.350Z,34.79
2018-08-06T13:12:51.709Z,34.88
2018-08-06T13:15:21.090Z,35.46
2018-08-06T13:17:50.444Z,34.92
2018-08-06T13:20:19.794Z,35.46
2018-08-06T13:22:49.160Z,35.22
2018-08-06T13:25:18.557Z,35.44
2018-08-06T13:27:47.874Z,35.21
2018-08-06T13:30:17.286Z,35.53
2018-08-06T13:32:46.446Z,36.71
2018-08-06T13:35:16.334Z,36.62
2018-08-06T13:37:45.712Z,36.05
2018-08-06T13:40:14.819Z,35.58
2018-08-06T13:42:44.224Z,34.77
2018-08-06T13:45:14.268Z,34.76
2018-08-06T13:47:43.920Z,35.17
2018-08-06T13:50:13.360Z,35.37
2018-08-06T13:52:42.766Z,35.41
2018-08-06T13:55:12.981Z,36.43
2018-08-06T13:57:42.591Z,36.74
2018-08-06T14:00:15.152Z,36.92
2018-08-06T14:02:44.551Z,36.64
2018-08-06T14:05:15.095Z,36.61
2018-08-06T14:07:45.639Z,36.68
2018-08-06T14:10:15.440Z,36.42
2018-08-06T14:12:44.837Z,37.44
2018-08-06T14:15:14.665Z,37.54
2018-08-06T14:17:44.324Z,37.94
2018-08-06T14:20:16.014Z,37.33
2018-08-06T14:22:45.405Z,37.74
2018-08-06T14:25:14.527Z,37.12
2018-08-06T14:27:43.922Z,36.36
2018-08-06T14:30:15.279Z,35.83
2018-08-06T14:32:45.002Z,36.26
2018-08-06T14:35:14.890Z,36.34
2018-08-06T14:37:44.258Z,36.70
2018-08-06T14:40:15.777Z,36.92
2018-08-06T14:42:45.561Z,36.83
2018-08-06T14:45:14.918Z,37.01
2018-08-06T14:47:44.059Z,37.44
2018-08-06T14:50:14.681Z,37.65
2018-08-06T14:52:44.072Z,37.65
2018-08-06T14:55:13.492Z,37.59
2018-08-06T14:57:42.959Z,37.57
2018-08-06T15:00:16.029Z,37.53
2018-08-06T15:02:45.495Z,38.44
2018-08-06T15:05:14.876Z,37.43
2018-08-06T15:07:44.275Z,37.12
2018-08-06T15:10:14.312Z,37.56
2018-08-06T15:12:43.707Z,37.16
2018-08-06T15:15:14.556Z,37.35
2018-08-06T15:17:44.466Z,36.71
2018-08-06T15:20:15.273Z,36.47
2018-08-06T15:22:44.732Z,36.39
2018-08-06T15:25:23.876Z,36.65
2018-08-06T15:27:53.300Z,36.42
2018-08-06T15:30:22.422Z,36.16
2018-08-06T15:32:51.866Z,36.79
2018-08-06T15:35:21.202Z,36.16
2018-08-06T15:37:50.375Z,35.98
2018-08-06T15:40:20.745Z,36.15
2018-08-06T15:42:50.149Z,36.06
2018-08-06T15:45:19.543Z,36.17
2018-08-06T15:47:48.951Z,36.37
2018-08-06T15:50:20.715Z,36.43
2018-08-06T15:52:50.123Z,36.50
2018-08-06T15:55:19.507Z,36.59
2018-08-06T15:57:48.883Z,36.29
2018-08-06T16:00:19.304Z,35.73
2018-08-06T16:02:48.960Z,35.65
2018-08-06T16:05:18.360Z,36.44
2018-08-06T16:07:47.893Z,36.46
2018-08-06T16:10:17.572Z,36.69
2018-08-06T16:12:46.950Z,36.68
2018-08-06T16:15:16.905Z,36.62
2018-08-06T16:17:46.409Z,36.71
2018-08-06T16:20:16.984Z,36.65
2018-08-06T16:22:46.382Z,37.95
2018-08-06T16:25:15.999Z,36.84
2018-08-06T16:27:45.132Z,37.21
2018-08-06T16:30:18.944Z,36.54
2018-08-06T16:32:48.737Z,36.78
2018-08-06T16:35:19.951Z,36.56
2018-08-06T16:37:50.610Z,36.30
2018-08-06T16:40:19.989Z,36.35
2018-08-06T16:42:49.834Z,36.43
2018-08-06T16:45:19.277Z,36.57
2018-08-06T16:47:48.663Z,36.20
2018-08-06T16:50:18.864Z,36.29
2018-08-06T16:52:51.365Z,36.21
2018-08-06T16:55:20.621Z,35.96
2018-08-06T16:57:50.009Z,36.07
2018-08-06T17:00:21.696Z,36.05
2018-08-06T17:02:52.396Z,35.91
2018-08-06T17:05:21.572Z,35.91
2018-08-06T17:07:51.327Z,35.86
2018-08-06T17:10:21.875Z,35.94
2018-08-06T17:12:53.351Z,35.65
2018-08-06T17:15:23.252Z,35.71
2018-08-06T17:17:55.103Z,35.66
2018-08-06T17:20:25.316Z,35.64
2018-08-06T17:22:54.742Z,35.67
2018-08-06T17:25:24.181Z,35.73
2018-08-06T17:27:53.313Z,35.57
2018-08-06T17:30:22.675Z,35.54
2018-08-06T17:32:51.796Z,35.42
2018-08-06T17:35:21.161Z,35.31
2018-08-06T17:37:50.512Z,35.18
2018-08-06T17:40:20.129Z,35.14
2018-08-06T17:42:49.752Z,34.99
2018-08-06T17:45:21.757Z,34.91
2018-08-06T17:47:50.885Z,34.76
2018-08-06T17:50:21.902Z,34.52
2018-08-06T17:52:52.040Z,34.21
2018-08-06T17:55:22.273Z,33.89
2018-08-06T17:57:51.628Z,33.64
2018-08-06T18:00:21.848Z,33.41
2018-08-06T18:02:51.267Z,32.41
2018-08-06T18:05:20.595Z,32.52
2018-08-06T18:07:49.985Z,32.35
2018-08-06T18:10:19.340Z,32.27
2018-08-06T18:12:48.899Z,31.79
2018-08-06T18:15:18.257Z,31.81
2018-08-06T18:17:47.609Z,32.33
2018-08-06T18:20:18.644Z,31.35
2018-08-06T18:22:48.115Z,30.99
2018-08-06T18:25:18.501Z,30.74
2018-08-06T18:27:48.681Z,30.51
2018-08-06T18:30:20.123Z,30.38
2018-08-06T18:32:49.642Z,30.11
2018-08-06T18:35:19.677Z,29.91
2018-08-06T18:37:49.100Z,29.80
2018-08-06T18:40:19.793Z,29.70
2018-08-06T18:42:49.216Z,29.35
2018-08-06T18:45:19.928Z,28.95
2018-08-06T18:47:50.166Z,28.59
2018-08-06T18:50:19.971Z,28.36
2018-08-06T18:52:49.805Z,28.19
2018-08-06T18:55:19.488Z,27.91
2018-08-06T18:57:48.931Z,27.72
2018-08-06T19:00:21.512Z,27.62
2018-08-06T19:02:51.184Z,27.50
2018-08-06T19:05:20.580Z,27.32
2018-08-06T19:07:50.014Z,27.10
2018-08-06T19:10:19.396Z,27.08
2018-08-06T19:12:53.855Z,26.75
2018-08-06T19:15:23.252Z,26.63
2018-08-06T19:17:57.689Z,26.44
2018-08-06T19:20:26.810Z,26.37
2018-08-06T19:22:56.181Z,26.31
2018-08-06T19:25:26.347Z,26.13
2018-08-06T19:27:56.057Z,26.01
2018-08-06T19:30:30.706Z,25.85
2018-08-06T19:33:00.496Z,25.93
2018-08-06T19:35:29.870Z,25.81
2018-08-06T19:37:59.256Z,25.80
2018-08-06T19:40:28.378Z,25.81
2018-08-06T19:43:02.999Z,25.87
2018-08-06T19:45:32.434Z,25.88
2018-08-06T19:48:01.737Z,25.87
2018-08-06T19:50:36.396Z,25.87
2018-08-06T19:53:06.223Z,25.44
2018-08-06T19:55:40.760Z,25.00
2018-08-06T19:58:10.163Z,25.48
2018-08-06T20:00:39.584Z,25.48
2018-08-06T20:03:08.984Z,25.34
2018-08-06T20:05:38.369Z,25.32
2018-08-06T20:08:08.744Z,25.29
2018-08-06T20:10:38.137Z,25.28
2018-08-06T20:13:07.558Z,25.12
2018-08-06T20:15:36.933Z,25.17
2018-08-06T20:18:06.328Z,25.15
2018-08-06T20:20:35.691Z,25.22
2018-08-06T20:23:05.081Z,25.10
2018-08-06T20:25:34.200Z,24.86
2018-08-06T20:28:03.626Z,25.09
2018-08-06T20:30:32.995Z,25.05
2018-08-06T20:33:02.376Z,25.08
2018-08-06T20:35:31.844Z,24.95
2018-08-06T20:38:01.161Z,24.74
2018-08-06T20:40:30.540Z,24.90
2018-08-06T20:42:59.902Z,24.63
2018-08-06T20:45:29.034Z,24.65
2018-08-06T20:47:58.426Z,24.62
2018-08-06T20:50:27.847Z,24.29
2018-08-06T20:52:57.227Z,24.69
2018-08-06T20:55:26.610Z,24.73
2018-08-06T20:57:55.976Z,24.70
2018-08-06T21:00:26.359Z,24.73
2018-08-06T21:02:55.750Z,24.57
2018-08-06T21:05:25.110Z,24.46
2018-08-06T21:07:54.500Z,23.89
2018-08-06T21:10:23.890Z,24.09
2018-08-06T21:12:53.275Z,23.98
2018-08-06T21:15:22.663Z,23.93
2018-08-06T21:17:52.026Z,23.99
2018-08-06T21:20:21.421Z,24.37
2018-08-06T21:22:50.809Z,24.01
2018-08-06T21:25:20.209Z,24.05
2018-08-06T21:27:49.600Z,24.04
2018-08-06T21:30:21.142Z,24.13
2018-08-06T21:32:53.074Z,24.04
2018-08-06T21:35:23.415Z,24.12
2018-08-06T21:37:53.639Z,24.06
2018-08-06T21:40:23.767Z,24.05
2018-08-06T21:42:53.258Z,23.85
2018-08-06T21:45:22.616Z,23.74
2018-08-06T21:47:51.993Z,23.41
2018-08-06T21:50:21.340Z,23.32
2018-08-06T21:52:50.722Z,23.25
2018-08-06T21:55:20.025Z,23.14
2018-08-06T21:57:49.385Z,23.10
2018-08-06T22:00:31.340Z,23.19
2018-08-06T22:03:00.709Z,23.23
2018-08-06T22:05:30.105Z,23.18
2018-08-06T22:07:59.463Z,23.14
2018-08-06T22:10:28.817Z,23.06
2018-08-06T22:12:58.156Z,23.00
2018-08-06T22:15:27.502Z,23.04
2018-08-06T22:17:56.844Z,23.11
2018-08-06T22:20:26.205Z,23.02
2018-08-06T22:22:55.886Z,22.91
2018-08-06T22:25:25.517Z,22.88
2018-08-06T22:27:54.917Z,22.90
2018-08-06T22:30:24.289Z,22.85
2018-08-06T22:32:53.642Z,23.01
2018-08-06T22:35:22.996Z,23.48
2018-08-06T22:37:52.344Z,23.73
2018-08-06T22:40:21.692Z,23.76
2018-08-06T22:42:51.034Z,23.70
2018-08-06T22:45:20.420Z,23.67
2018-08-06T22:47:49.769Z,23.55
2018-08-06T22:50:19.121Z,23.45
2018-08-06T22:52:48.439Z,23.22
2018-08-06T22:55:17.799Z,23.10
2018-08-06T22:57:47.197Z,22.91
2018-08-06T23:00:17.384Z,22.84
2018-08-06T23:02:46.685Z,22.65
2018-08-06T23:05:16.677Z,22.52
2018-08-06T23:07:46.071Z,22.46
2018-08-06T23:10:17.344Z,21.84
2018-08-06T23:12:46.768Z,22.28
2018-08-06T23:15:16.768Z,22.18
2018-08-06T23:17:46.357Z,21.81
2018-08-06T23:20:15.676Z,21.83
2018-08-06T23:22:45.032Z,22.53
2018-08-06T23:25:14.379Z,21.94
2018-08-06T23:27:43.725Z,21.88
2018-08-06T23:30:15.470Z,21.90
2018-08-06T23:32:44.843Z,21.84
2018-08-06T23:35:14.503Z,21.75
2018-08-06T23:37:45.212Z,21.64
2018-08-06T23:40:15.243Z,21.74
2018-08-06T23:42:44.844Z,21.56
2018-08-06T23:45:15.464Z,21.58
2018-08-06T23:47:45.084Z,21.63
2018-08-06T23:50:15.712Z,21.67
2018-08-06T23:52:45.949Z,21.84
2018-08-06T23:55:17.716Z,21.88
2018-08-06T23:57:47.308Z,22.02
